Aérodrome :
LOGIN :

S'inscrire | Disclaimer

   EN    FR    IT 

 










Légende :    VFR   VFR Marginal   IFR   IFR Intensif   IFR Très Intensif
Visi : 
Plafond : 
>= 8 km
>= 3000ft
5 à 8 km
1000 à 3000 ft
1500m à 5 km
500 à 1000 ft
800 à 1500m
200 à 500 ft
< 800m
< 200 ft
Symboles :   Orages  Brouillard  Fortes neiges  Fortes précipitations  Vent > 20 kt
SIGMETs :   Divers  Orages  Givrage  Turbulence  Onde Orograph.  Cendres Volcan.







- Altitude de l'aérodrome : 257 ft
- Code IATA : MAN
- Voir les cartes d'approche


EGCC - Manchester

DERNIER METAR :
  • 270420Z AUTO 26010KT 9999 -RA BKN020 BKN024 OVC037 11/08 Q1008 NOSIG

METARs EXPIRÉS :
  • 270350Z AUTO 24010KT 9999 BKN020 12/08 Q1008 NOSIG
  • 270320Z AUTO 24011KT 9999 BKN019 BKN026 12/08 Q1009 NOSIG
  • 270250Z AUTO 25010KT 9999 BKN021 BKN026 BKN032 12/08 Q1009 NOSIG
  • 270220Z AUTO 26010KT 9999 SCT023 BKN030 12/08 Q1009 NOSIG
  • 270150Z AUTO 26011KT 9999 NCD 12/07 Q1009

TAF TAF EGCC
Valide du 27 à 00h jusqu'au 28 à 06h UTC


262254Z 2700/2806 27008KT 9999 SCT035
TEMPO 2704/2712 28015G25KT 7000 SHRA
TEMPO 2712/2806 6000 SHRA
PROB30
TEMPO 2712/2718 4000 +SHRA
ATIS : +44 161 499 2324
Pas de NOTAMs connus pour ce terrain.



MET'MAP, la Météo Aéronautique d'un coup d'oeil ! - Copyright ORBIFLY Décembre 2007 - Disclaimer

ORBIFLY MET'MAP TEAM :

Programmation & Développement : Alexandra Zaïnal
Conception & Développement : Baudouin d'Aumeries
Co-Programmation & Développement : Marc-Olivier Méhu
Soutien technique & logistique : Manuel Goepfert

Contact : metmap@orbifly.com




SOURCES & CREDITS :

   NOAA